Miami Beach, Florida
Current Conditions -  °F | °C
As of 11:53 AM on Wednesday 22 Oct 2014 (Local Time) from KMIA Reporting Station
Overcast Overcast  
Wind Chill: 28°   Ceiling: 17000
Heat Index: 31°   Visibility: 10mi
Dew Point: 21°   Wind: 6mph
Humidity: 65%   Direction: 50°NE
Pressure: 29.97"   Gusts: NA
Location:  25.81°N, 80.13°W
Report Text: KMIA 221553Z 05005KT 10SM FEW023 SCT130 BKN170 OVC250 28/21 A2997 RMK AO2 SLP149 T02830211
Loading
Personal Weather Stations






























Interactive Weather Map
Tropical Storm Tracking
New forecast layout! Learn more

10-Day Weather Forecast

Advertisements
Track Severe Weather on mobile